Time;durP1;ratioP1;P1;durP2;ratioP2;P2;SDS_P1;SDS_P2;PMS_P1;PMS_P2;Temp;Humidity;BMP_temperature;BMP_pressure;BME280_temperature;BME280_humidity;BME280_pressure;Samples;Min_cycle;Max_cycle;Signal;HPM_P1;HPM_P2
2022/10/21 00:00:39;;;;;;;1.52;1.20;;;;;;;12.87;41.40;102607.18;1594952;88;21062;-50
2022/10/21 00:03:05;;;;;;;1.42;1.17;;;;;;;12.86;41.42;102606.73;1595155;88;21078;-51
2022/10/21 00:05:32;;;;;;;1.47;1.02;;;;;;;12.84;41.32;102608.05;1594507;89;21074;-49
2022/10/21 00:08:00;;;;;;;1.35;1.25;;;;;;;12.82;41.47;102607.61;1594637;88;21559;-50
2022/10/21 00:10:27;;;;;;;4.12;1.65;;;;;;;12.81;41.33;102617.22;1594200;88;21115;-50
2022/10/21 00:12:54;;;;;;;2.22;1.40;;;;;;;12.80;41.17;102621.98;1594669;89;21142;-50
2022/10/21 00:15:20;;;;;;;2.20;1.12;;;;;;;12.82;41.55;102628.51;1606219;88;21065;-50
2022/10/21 00:17:48;;;;;;;1.67;1.30;;;;;;;12.82;41.53;102620.24;1582564;89;21553;-50
2022/10/21 00:20:15;;;;;;;1.00;0.93;;;;;;;12.81;41.61;102631.59;1582344;90;21423;-49
2022/10/21 00:22:43;;;;;;;3.10;1.07;;;;;;;12.82;41.45;102625.47;1614426;87;21039;-49
2022/10/21 00:25:10;;;;;;;1.17;1.07;;;;;;;12.82;41.73;102617.63;1672840;85;21570;-49
2022/10/21 00:27:36;;;;;;;1.75;1.40;;;;;;;12.80;41.96;102611.97;1645571;86;21053;-50
2022/10/21 00:30:06;;;;;;;4.15;1.50;;;;;;;12.77;41.65;102616.78;1645608;86;21527;-51
2022/10/21 00:32:34;;;;;;;1.85;1.20;;;;;;;12.74;41.46;102618.08;1645515;86;21094;-50
2022/10/21 00:35:00;;;;;;;2.55;1.50;;;;;;;12.70;41.14;102617.66;1645624;86;21101;-50
2022/10/21 00:37:31;;;;;;;2.83;1.80;;;;;;;12.68;40.47;102620.70;1668490;85;21089;-50
2022/10/21 00:39:58;;;;;;;2.50;1.60;;;;;;;12.67;40.18;102629.42;1648083;86;21051;-49
2022/10/21 00:42:36;;;;;;;4.20;1.70;;;;;;;12.64;40.11;102626.80;1703368;84;20994;-50
2022/10/21 00:45:12;;;;;;;1.75;1.60;;;;;;;12.59;40.05;102628.53;1699829;84;21584;-51
2022/10/21 00:47:46;;;;;;;2.67;1.80;;;;;;;12.55;39.93;102629.40;1704641;83;21018;-50
2022/10/21 00:50:36;;;;;;;3.20;1.60;;;;;;;12.49;39.73;102618.95;1666888;85;21057;-50
2022/10/21 00:53:04;;;;;;;2.10;1.60;;;;;;;12.43;39.23;102617.66;1605664;89;21569;-49
2022/10/21 00:55:36;;;;;;;2.90;1.62;;;;;;;12.34;39.14;102616.37;1603363;89;21069;-49
2022/10/21 00:58:03;;;;;;;4.17;1.70;;;;;;;12.28;39.24;102625.93;1603188;89;21033;-50
2022/10/21 01:00:29;;;;;;;3.08;1.77;;;;;;;12.20;39.50;102625.89;1603847;89;21136;-51
2022/10/21 01:02:56;;;;;;;3.08;1.82;;;;;;;12.15;39.67;102627.65;1605405;89;21120;-53
2022/10/21 01:05:23;;;;;;;2.72;1.95;;;;;;;12.10;39.91;102621.11;1604841;89;21156;-50
2022/10/21 01:07:49;;;;;;;2.45;1.95;;;;;;;12.07;40.10;102626.77;1605284;89;21090;-50
2022/10/21 01:10:17;;;;;;;4.28;1.80;;;;;;;12.02;39.94;102629.79;1603911;89;21046;-52
2022/10/21 01:13:04;;;;;;;1.92;1.50;;;;;;;11.97;39.75;102626.32;1603637;88;21029;-54
2022/10/21 01:15:42;;;;;;;3.62;1.82;;;;;;;11.92;39.72;102628.91;1596187;89;21086;-50
2022/10/21 01:18:28;;;;;;;5.97;1.75;;;;;;;11.87;39.72;102629.31;1616425;87;21053;-53
2022/10/21 01:21:03;;;;;;;2.08;1.55;;;;;;;11.81;39.69;102631.91;1609994;89;21073;-51
2022/10/21 01:24:17;;;;;;;2.30;1.52;;;;;;;11.75;39.68;102634.92;1616464;87;21168;-49
2022/10/21 01:26:55;;;;;;;6.58;1.70;;;;;;;11.68;39.79;102633.19;1616124;87;21113;-49
2022/10/21 01:29:53;;;;;;;2.15;1.80;;;;;;;11.62;40.01;102652.69;1621667;86;21553;-50
2022/10/21 01:32:29;;;;;;;3.30;2.95;;;;;;;11.57;40.22;102650.48;1664843;84;21052;-50
2022/10/21 01:35:04;;;;;;;3.33;2.00;;;;;;;11.51;40.23;102660.45;1664509;84;21009;-50
2022/10/21 01:37:57;;;;;;;3.42;2.10;;;;;;;11.47;40.31;102654.79;1671113;84;21070;-49
2022/10/21 01:40:44;;;;;;;1.90;1.40;;;;;;;11.43;40.35;102652.61;1670158;84;21064;-49
2022/10/21 01:43:35;;;;;;;3.33;1.72;;;;;;;11.40;40.67;102651.70;1671249;84;21509;-50
2022/10/21 01:46:06;;;;;;;2.67;1.80;;;;;;;11.38;40.92;102649.09;1646738;85;21038;-50
2022/10/21 01:48:38;;;;;;;1.95;1.60;;;;;;;11.36;40.91;102658.64;1676708;85;21325;-49
2022/10/21 01:51:06;;;;;;;3.92;2.17;;;;;;;11.35;40.54;102660.80;1622754;87;21206;-49
2022/10/21 01:54:14;;;;;;;2.75;1.95;;;;;;;11.32;40.60;102659.49;1622902;87;21033;-50
2022/10/21 01:56:41;;;;;;;2.65;1.80;;;;;;;11.29;40.67;102667.28;1615883;87;21088;-50
2022/10/21 01:59:09;;;;;;;3.98;2.17;;;;;;;11.27;40.69;102663.80;1622697;87;21516;-50
2022/10/21 02:01:36;;;;;;;3.10;1.80;;;;;;;11.25;40.82;102662.91;1611579;87;21036;-50
2022/10/21 02:04:02;;;;;;;2.72;1.80;;;;;;;11.24;41.07;102662.48;1622509;87;21174;-51
2022/10/21 02:06:29;;;;;;;3.08;2.00;;;;;;;11.22;41.43;102659.01;1623071;88;21028;-52
2022/10/21 02:08:56;;;;;;;2.92;2.00;;;;;;;11.21;41.46;102663.76;1622436;88;21076;-50
2022/10/21 02:11:23;;;;;;;3.75;1.87;;;;;;;11.19;41.43;102664.19;1622612;87;21080;-50
2022/10/21 02:14:05;;;;;;;5.25;1.98;;;;;;;11.17;41.48;102673.73;1622871;87;21123;-50
2022/10/21 02:16:36;;;;;;;3.25;2.00;;;;;;;11.15;41.57;102678.48;1551766;91;21103;-50
2022/10/21 02:19:03;;;;;;;3.87;2.35;;;;;;;11.13;41.78;102681.08;1525820;93;21589;-50
2022/10/21 02:21:33;;;;;;;2.92;2.30;;;;;;;11.13;41.96;102682.38;1525722;93;21119;-49
2022/10/21 02:24:12;;;;;;;4.47;2.33;;;;;;;11.12;42.10;102681.96;1556540;91;21040;-50
2022/10/21 02:26:38;;;;;;;5.20;1.95;;;;;;;11.11;42.17;102678.90;1552185;92;21604;-52
2022/10/21 02:29:05;;;;;;;4.35;1.95;;;;;;;11.09;42.34;102677.14;1556900;92;21079;-49
2022/10/21 02:32:00;;;;;;;2.83;2.00;;;;;;;11.07;42.52;102685.38;1555650;91;21087;-50
2022/10/21 02:34:49;;;;;;;2.37;1.70;;;;;;;11.06;42.67;102689.73;1556880;92;21621;-49
2022/10/21 02:37:33;;;;;;;3.35;2.00;;;;;;;11.06;42.64;102694.06;1540359;92;21698;-49
2022/10/21 02:40:28;;;;;;;3.87;2.05;;;;;;;11.04;42.56;102692.77;1532389;91;21159;-52
2022/10/21 02:42:59;;;;;;;3.50;2.17;;;;;;;11.04;42.49;102690.16;1574682;90;21082;-49
2022/10/21 02:45:27;;;;;;;2.60;2.12;;;;;;;11.03;42.62;102687.09;1575245;90;21550;-50
2022/10/21 02:47:54;;;;;;;2.60;1.72;;;;;;;11.02;42.68;102685.80;1574578;91;21566;-49
2022/10/21 02:50:20;;;;;;;4.30;2.42;;;;;;;11.00;42.82;102684.48;1567920;90;21071;-50
2022/10/21 02:52:47;;;;;;;2.80;2.27;;;;;;;10.97;42.86;102686.17;1582589;88;21113;-49
2022/10/21 02:55:14;;;;;;;3.58;2.15;;;;;;;10.96;42.90;102682.72;1657016;84;21058;-50
2022/10/21 02:57:41;;;;;;;2.87;2.10;;;;;;;10.94;43.09;102681.81;1665879;84;21011;-52
2022/10/21 03:00:09;;;;;;;3.37;2.25;;;;;;;10.95;43.27;102683.57;1669905;85;21507;-55
2022/10/21 03:02:37;;;;;;;3.40;2.80;;;;;;;10.95;43.53;102687.48;1669668;84;21570;-50
2022/10/21 03:05:05;;;;;;;4.05;2.30;;;;;;;10.94;43.85;102681.81;1668737;84;21018;-49
2022/10/21 03:07:32;;;;;;;5.90;2.67;;;;;;;10.91;44.05;102681.80;1657607;84;21059;-49
2022/10/21 03:09:59;;;;;;;3.92;2.52;;;;;;;10.89;44.21;102683.53;1663677;84;21069;-51
2022/10/21 03:12:26;;;;;;;7.90;2.60;;;;;;;10.89;44.42;102695.25;1670096;84;21078;-52
2022/10/21 03:14:54;;;;;;;3.95;2.72;;;;;;;10.90;44.72;102695.67;1665421;85;21098;-50
2022/10/21 03:17:21;;;;;;;6.67;2.90;;;;;;;10.93;45.04;102698.31;1673510;82;21049;-50
2022/10/21 03:19:47;;;;;;;4.22;2.70;;;;;;;10.96;45.49;102695.75;1693607;82;21022;-52
2022/10/21 03:22:15;;;;;;;4.65;2.85;;;;;;;10.99;45.81;102685.33;1706451;82;21031;-50
2022/10/21 03:24:43;;;;;;;4.50;2.80;;;;;;;11.03;46.33;102683.19;1706210;82;21046;-49
2022/10/21 03:27:09;;;;;;;4.58;2.83;;;;;;;11.08;46.52;102684.11;1703918;82;21121;-49
2022/10/21 03:29:37;;;;;;;7.20;2.90;;;;;;;11.14;46.48;102693.27;1704745;82;21648;-50
2022/10/21 03:32:04;;;;;;;4.20;2.65;;;;;;;11.20;46.31;102688.09;1700763;83;21033;-49
2022/10/21 03:34:31;;;;;;;4.65;3.35;;;;;;;11.27;46.20;102695.06;1707343;82;21041;-52
2022/10/21 03:36:58;;;;;;;3.80;2.50;;;;;;;11.31;46.23;102689.01;1706082;82;20995;-50
2022/10/21 03:39:25;;;;;;;4.20;2.80;;;;;;;11.35;46.57;102682.95;1703685;82;21058;-49
2022/10/21 03:41:51;;;;;;;3.62;2.80;;;;;;;11.36;47.04;102687.31;1703132;82;21534;-50
2022/10/21 03:44:18;;;;;;;4.97;3.12;;;;;;;11.34;47.29;102686.44;1703047;82;21046;-50
2022/10/21 03:46:45;;;;;;;3.67;2.83;;;;;;;11.31;47.58;102686.40;1703219;82;21046;-50
2022/10/21 03:49:13;;;;;;;3.62;2.83;;;;;;;11.30;47.78;102678.16;1699238;82;21050;-53
2022/10/21 03:51:40;;;;;;;3.75;2.77;;;;;;;11.31;47.83;102675.98;1702225;82;21545;-50
2022/10/21 03:54:06;;;;;;;4.65;3.08;;;;;;;11.37;47.81;102677.31;1703132;82;21089;-50
2022/10/21 03:56:35;;;;;;;4.22;3.00;;;;;;;11.43;47.73;102674.77;1703007;82;21042;-53
2022/10/21 03:59:01;;;;;;;4.83;3.00;;;;;;;11.46;47.70;102683.89;1703371;82;21491;-49
2022/10/21 04:01:28;;;;;;;4.10;2.95;;;;;;;11.50;47.70;102678.70;1704974;82;21100;-50
2022/10/21 04:03:54;;;;;;;4.22;3.10;;;;;;;11.53;47.64;102673.06;1702328;82;21054;-51
2022/10/21 04:06:21;;;;;;;3.35;2.45;;;;;;;11.57;47.50;102675.25;1701678;83;21006;-51
2022/10/21 04:08:48;;;;;;;3.62;3.00;;;;;;;11.54;47.55;102672.19;1707713;82;21042;-50
2022/10/21 04:11:16;;;;;;;4.15;2.95;;;;;;;11.52;47.65;102678.28;1706011;82;21070;-49
2022/10/21 04:13:42;;;;;;;3.92;2.85;;;;;;;11.47;47.57;102687.37;1702879;82;21002;-49
2022/10/21 04:16:16;;;;;;;4.95;3.22;;;;;;;11.42;47.86;102686.47;1696553;82;21030;-49
2022/10/21 04:18:43;;;;;;;4.45;3.10;;;;;;;11.42;48.03;102693.86;1689454;84;21058;-49
2022/10/21 04:21:11;;;;;;;3.77;2.90;;;;;;;11.41;48.02;102692.14;1701647;82;21082;-50
2022/10/21 04:23:37;;;;;;;4.80;2.85;;;;;;;11.39;48.09;102697.77;1709410;82;21027;-49
2022/10/21 04:26:05;;;;;;;5.42;3.27;;;;;;;11.38;48.05;102701.23;1703271;82;21010;-50
2022/10/21 04:28:32;;;;;;;4.08;3.20;;;;;;;11.40;47.96;102698.20;1703196;82;21523;-50
2022/10/21 04:30:59;;;;;;;4.15;3.27;;;;;;;11.40;48.30;102704.71;1703000;82;21085;-50
2022/10/21 04:33:26;;;;;;;5.97;3.45;;;;;;;11.41;48.26;102703.86;1703118;82;21105;-49
2022/10/21 04:35:54;;;;;;;3.37;3.08;;;;;;;11.43;48.42;102707.35;1704017;82;21058;-49
2022/10/21 04:38:22;;;;;;;4.37;3.55;;;;;;;11.44;48.46;102698.66;1705946;82;21546;-50
2022/10/21 04:41:01;;;;;;;4.28;2.77;;;;;;;11.45;48.65;102703.02;1706307;82;21522;-49
2022/10/21 04:43:28;;;;;;;5.92;3.62;;;;;;;11.45;48.61;102703.44;1706317;82;20986;-50
2022/10/21 04:45:55;;;;;;;8.48;3.37;;;;;;;11.44;48.71;102703.86;1704021;82;21105;-50
2022/10/21 04:48:21;;;;;;;3.95;3.02;;;;;;;11.44;48.52;102696.05;1704823;82;21529;-50
2022/10/21 04:50:49;;;;;;;4.70;2.60;;;;;;;11.46;48.50;102696.92;1700481;83;21030;-53
2022/10/21 04:53:16;;;;;;;4.22;2.55;;;;;;;11.53;48.39;102695.65;1706406;82;21038;-50
2022/10/21 04:55:43;;;;;;;5.40;2.50;;;;;;;11.58;48.21;102700.47;1706031;82;21015;-50
2022/10/21 04:58:10;;;;;;;4.17;2.72;;;;;;;11.60;47.93;102700.05;1703988;82;21506;-50
2022/10/21 05:00:36;;;;;;;3.92;2.83;;;;;;;11.63;48.02;102714.38;1702900;82;21035;-50
2022/10/21 05:03:04;;;;;;;3.85;2.50;;;;;;;11.65;47.94;102719.17;1703504;82;21026;-50
2022/10/21 05:05:30;;;;;;;5.03;2.98;;;;;;;11.65;47.71;102725.27;1702845;82;21058;-55
2022/10/21 05:07:58;;;;;;;4.28;2.92;;;;;;;11.66;47.64;102731.36;1703335;82;21014;-49
2022/10/21 05:10:25;;;;;;;6.12;2.33;;;;;;;11.68;47.68;102730.97;1699979;82;21026;-50
2022/10/21 05:12:51;;;;;;;3.22;2.67;;;;;;;11.69;47.59;102735.30;1706110;82;21050;-54
2022/10/21 05:15:19;;;;;;;3.42;2.75;;;;;;;11.71;47.72;102734.88;1702902;82;21110;-50
2022/10/21 05:17:46;;;;;;;5.28;3.52;;;;;;;11.72;47.94;102736.64;1705207;83;21489;-50
2022/10/21 05:20:13;;;;;;;4.65;3.55;;;;;;;11.76;48.15;102742.31;1705944;82;21082;-53
2022/10/21 05:22:41;;;;;;;6.22;3.55;;;;;;;11.79;48.21;102749.71;1706043;82;21070;-53
2022/10/21 05:25:08;;;;;;;5.80;3.45;;;;;;;11.84;47.99;102741.48;1704335;82;21065;-50
2022/10/21 05:27:34;;;;;;;5.08;3.33;;;;;;;11.93;47.66;102741.97;1703053;82;21019;-54
2022/10/21 05:30:02;;;;;;;5.25;3.77;;;;;;;11.99;47.38;102740.69;1703032;82;21030;-50
2022/10/21 05:32:29;;;;;;;5.65;3.55;;;;;;;12.02;47.21;102741.98;1703126;82;21514;-49
2022/10/21 05:34:55;;;;;;;6.37;4.25;;;;;;;12.04;47.17;102736.34;1703573;82;21069;-53
2022/10/21 05:37:22;;;;;;;6.95;3.90;;;;;;;12.06;47.02;102739.40;1705438;82;21070;-54
2022/10/21 05:39:49;;;;;;;7.80;4.53;;;;;;;12.08;46.89;102738.09;1706427;82;21105;-50
2022/10/21 05:42:16;;;;;;;5.03;3.52;;;;;;;12.07;46.90;102746.38;1705377;82;21530;-50
2022/10/21 05:44:43;;;;;;;6.30;3.62;;;;;;;12.07;46.90;102738.97;1702707;83;21570;-50
2022/10/21 05:47:09;;;;;;;5.75;4.50;;;;;;;12.06;46.91;102745.92;1704750;82;21026;-49
2022/10/21 05:49:36;;;;;;;5.30;3.90;;;;;;;12.08;47.01;102753.31;1703189;82;20999;-49
2022/10/21 05:52:03;;;;;;;6.47;4.60;;;;;;;12.08;47.04;102753.31;1693562;83;21086;-50
2022/10/21 05:54:31;;;;;;;3.60;3.10;;;;;;;12.09;47.16;102751.59;1706316;82;21042;-51
2022/10/21 05:56:58;;;;;;;5.62;2.85;;;;;;;12.11;47.03;102751.16;1703613;82;25343;-50
2022/10/21 05:59:26;;;;;;;5.00;3.10;;;;;;;12.13;46.97;102754.65;1703234;82;21523;-50
2022/10/21 06:01:53;;;;;;;4.85;2.45;;;;;;;12.14;46.91;102753.77;1703499;82;21502;-50
2022/10/21 06:04:19;;;;;;;4.12;3.05;;;;;;;12.19;46.90;102762.50;1703488;82;21042;-50
2022/10/21 06:06:46;;;;;;;4.40;3.10;;;;;;;12.23;47.00;102769.47;1703127;82;21555;-50
2022/10/21 06:09:12;;;;;;;3.77;3.22;;;;;;;12.26;47.02;102766.88;1691151;82;21085;-50
2022/10/21 06:11:39;;;;;;;3.27;2.60;;;;;;;12.31;46.67;102765.14;1704681;82;21046;-49
2022/10/21 06:14:07;;;;;;;3.42;2.98;;;;;;;12.36;46.27;102771.27;1705009;83;21050;-53
2022/10/21 06:16:34;;;;;;;4.92;3.17;;;;;;;12.39;46.32;102763.42;1706239;82;21015;-50
2022/10/21 06:19:02;;;;;;;3.75;2.80;;;;;;;12.41;46.22;102764.30;1706159;82;21093;-50
2022/10/21 06:21:28;;;;;;;5.08;2.95;;;;;;;12.42;46.19;102766.05;1703443;82;21479;-49
2022/10/21 06:23:55;;;;;;;3.42;2.90;;;;;;;12.43;46.34;102765.17;1703437;82;21023;-50
2022/10/21 06:26:23;;;;;;;4.95;3.62;;;;;;;12.45;46.30;102772.58;1703205;82;21538;-50
2022/10/21 06:28:50;;;;;;;5.33;3.33;;;;;;;12.47;46.29;102768.69;1703468;82;21062;-49
2022/10/21 06:31:20;;;;;;;4.92;3.08;;;;;;;12.49;46.28;102769.09;1703833;82;21066;-52
2022/10/21 06:33:47;;;;;;;6.35;3.40;;;;;;;12.51;46.37;102771.28;1700178;82;21018;-49
2022/10/21 06:36:15;;;;;;;4.28;2.83;;;;;;;12.53;46.23;102776.07;1706368;82;21094;-50
2022/10/21 06:38:42;;;;;;;4.17;2.83;;;;;;;12.56;46.24;102778.70;1705252;82;21077;-50
2022/10/21 06:41:11;;;;;;;4.60;2.83;;;;;;;12.61;46.37;102788.70;1703688;82;21518;-51
2022/10/21 06:43:38;;;;;;;6.72;3.40;;;;;;;12.66;46.23;102788.30;1702738;82;20994;-50
2022/10/21 06:46:07;;;;;;;4.58;3.58;;;;;;;12.70;46.16;102788.73;1701445;83;20995;-50
2022/10/21 06:48:33;;;;;;;4.10;3.58;;;;;;;12.73;46.07;102793.11;1707587;82;21451;-49
2022/10/21 06:51:05;;;;;;;3.42;2.90;;;;;;;12.76;45.86;102795.28;1705662;82;21026;-50
2022/10/21 06:53:31;;;;;;;4.70;3.10;;;;;;;12.77;45.70;102786.59;1642276;86;21054;-55
2022/10/21 06:56:13;;;;;;;3.85;3.10;;;;;;;12.80;45.51;102790.92;1636402;87;21030;-50
2022/10/21 07:01:14;;;;;;;4.62;3.33;;;;;;;12.82;45.44;102795.28;1566909;91;21094;-50
2022/10/21 07:03:41;;;;;;;5.20;3.72;;;;;;;12.81;45.34;102789.64;1526064;93;21155;-50
2022/10/21 07:06:07;;;;;;;3.00;2.55;;;;;;;12.83;45.44;102798.35;1501785;95;21177;-51
2022/10/21 07:08:36;;;;;;;4.42;3.15;;;;;;;12.85;45.20;102797.91;1506226;95;21137;-50
2022/10/21 07:11:05;;;;;;;4.00;2.90;;;;;;;12.85;44.93;102801.83;1530075;93;21618;-51
2022/10/21 07:13:36;;;;;;;3.27;2.70;;;;;;;12.86;44.75;102808.79;1525109;93;21090;-50
2022/10/21 07:16:09;;;;;;;3.27;2.90;;;;;;;12.85;44.77;102812.28;1518947;93;21091;-50
2022/10/21 07:18:36;;;;;;;3.00;2.70;;;;;;;12.84;44.56;102807.91;1520614;93;21147;-50
2022/10/21 07:21:06;;;;;;;3.60;2.77;;;;;;;12.85;44.85;102800.53;1523883;93;21059;-50
2022/10/21 07:23:34;;;;;;;3.05;2.60;;;;;;;12.88;44.90;102807.05;1504511;93;21093;-53
2022/10/21 07:26:05;;;;;;;3.42;2.30;;;;;;;12.91;44.72;102809.68;1504994;95;21097;-52
2022/10/21 07:28:32;;;;;;;2.83;2.12;;;;;;;12.95;44.80;102803.58;1504942;95;21148;-50
2022/10/21 07:30:59;;;;;;;3.17;2.42;;;;;;;12.99;44.64;102806.63;1505982;95;21108;-50
2022/10/21 07:33:25;;;;;;;3.17;2.37;;;;;;;13.04;44.42;102804.91;1507255;95;21215;-49
2022/10/21 07:36:04;;;;;;;4.95;3.05;;;;;;;13.09;44.34;102802.30;1507034;95;21093;-49
2022/10/21 07:38:32;;;;;;;3.33;2.58;;;;;;;13.10;44.23;102804.06;1486776;95;21154;-50
2022/10/21 07:40:59;;;;;;;3.27;2.60;;;;;;;13.13;44.24;102800.59;1485387;97;21589;-50
2022/10/21 07:43:25;;;;;;;4.20;2.55;;;;;;;13.16;44.19;102796.65;1485741;97;21169;-50
2022/10/21 07:45:52;;;;;;;4.50;2.58;;;;;;;13.20;44.15;102797.96;1485956;97;21120;-50
2022/10/21 07:48:19;;;;;;;3.25;2.55;;;;;;;13.24;43.99;102794.91;1485612;97;21620;-49
2022/10/21 07:50:46;;;;;;;4.83;3.00;;;;;;;13.26;43.69;102794.03;1530953;92;21088;-54
2022/10/21 07:53:13;;;;;;;2.92;2.15;;;;;;;13.30;43.60;102789.67;1558405;91;21074;-50
2022/10/21 07:55:41;;;;;;;3.55;2.52;;;;;;;13.31;43.33;102791.42;1541337;92;21106;-50
2022/10/21 07:58:08;;;;;;;3.20;2.47;;;;;;;13.33;43.13;102788.38;1574866;90;21076;-50
2022/10/21 08:00:35;;;;;;;3.42;2.80;;;;;;;13.35;42.92;102794.47;1572489;90;21579;-49
2022/10/21 08:03:01;;;;;;;3.80;2.42;;;;;;;13.38;42.97;102799.68;1564036;91;21097;-50
2022/10/21 08:05:28;;;;;;;3.25;2.70;;;;;;;13.41;42.90;102795.77;1555541;91;21097;-50
2022/10/21 08:07:55;;;;;;;4.00;2.37;;;;;;;13.46;42.80;102788.77;1564216;91;21123;-50
2022/10/21 08:10:21;;;;;;;2.67;2.05;;;;;;;13.50;42.61;102783.97;1557093;91;21078;-50
2022/10/21 08:12:48;;;;;;;2.85;2.45;;;;;;;13.55;42.71;102794.00;1573950;90;21567;-50
2022/10/21 08:15:15;;;;;;;3.58;2.50;;;;;;;13.59;42.51;102789.20;1575112;90;21047;-50
2022/10/21 08:17:42;;;;;;;4.67;2.50;;;;;;;13.63;42.40;102792.24;1573159;90;21143;-50
2022/10/21 08:20:11;;;;;;;7.62;2.45;;;;;;;13.68;42.35;102783.96;1599860;86;21072;-50
2022/10/21 08:22:37;;;;;;;2.75;2.40;;;;;;;13.73;42.71;102783.06;1691181;84;21573;-55
2022/10/21 08:25:06;;;;;;;2.80;2.30;;;;;;;13.80;42.62;102785.23;1675680;84;21029;-49
2022/10/21 08:27:33;;;;;;;4.58;2.70;;;;;;;13.86;42.29;102786.09;1694139;84;21040;-54
2022/10/21 08:30:00;;;;;;;4.37;2.70;;;;;;;13.90;42.25;102788.25;1692831;84;21053;-50
2022/10/21 08:32:27;;;;;;;3.33;2.80;;;;;;;13.95;42.15;102793.02;1690812;84;21549;-50
2022/10/21 08:34:53;;;;;;;2.77;2.58;;;;;;;13.97;42.26;102790.41;1691046;83;21097;-49
2022/10/21 08:37:20;;;;;;;2.92;2.52;;;;;;;14.00;42.35;102786.03;1712029;82;21066;-50
2022/10/21 08:39:46;;;;;;;3.35;2.42;;;;;;;14.05;41.96;102788.20;1705723;82;21537;-51
2022/10/21 08:42:16;;;;;;;1.98;1.77;;;;;;;14.09;42.02;102785.13;1705794;82;21065;-54
2022/10/21 08:45:00;;;;;;;1.98;1.75;;;;;;;14.14;41.66;102778.98;1687209;84;21019;-50
2022/10/21 08:47:46;;;;;;;4.03;1.90;;;;;;;14.20;41.23;102778.11;1708634;82;21026;-49
2022/10/21 08:50:19;;;;;;;4.75;1.82;;;;;;;14.25;41.17;102771.97;1674489;83;21512;-50
2022/10/21 08:52:58;;;;;;;5.20;2.00;;;;;;;14.31;41.06;102760.18;1642548;85;21095;-55
2022/10/21 08:55:35;;;;;;;2.25;1.80;;;;;;;14.38;41.09;102768.45;1611391;88;21106;-52
2022/10/21 08:58:02;;;;;;;2.30;1.67;;;;;;;14.45;40.84;102767.52;1624729;86;21111;-50
2022/10/21 09:00:49;;;;;;;2.12;1.90;;;;;;;14.52;40.77;102774.47;1622625;86;21018;-50
2022/10/21 09:03:59;;;;;;;2.25;1.80;;;;;;;14.60;40.57;102780.53;1656298;84;21116;-50
2022/10/21 09:06:54;;;;;;;7.30;2.08;;;;;;;14.70;40.13;102787.88;1670040;84;21037;-51
2022/10/21 09:09:49;;;;;;;2.67;2.10;;;;;;;14.77;39.82;102785.66;1657960;84;21108;-52
2022/10/21 09:12:33;;;;;;;2.17;1.98;;;;;;;14.79;39.68;102783.02;1654741;84;21528;-54
2022/10/21 09:15:43;;;;;;;2.52;2.10;;;;;;;14.82;39.90;102781.23;1664962;84;21490;-50
2022/10/21 09:18:36;;;;;;;2.37;2.05;;;;;;;14.87;39.88;102789.08;1658611;84;21041;-50
2022/10/21 09:21:39;;;;;;;3.52;2.20;;;;;;;14.90;39.81;102789.08;1642496;86;21108;-49
2022/10/21 09:24:13;;;;;;;2.72;2.37;;;;;;;14.94;40.00;102786.39;1602291;89;21655;-53
2022/10/21 09:26:42;;;;;;;3.85;2.10;;;;;;;14.99;39.92;102778.50;1531246;93;21135;-50
2022/10/21 09:29:25;;;;;;;2.75;2.37;;;;;;;15.05;39.97;102775.82;1531829;93;21107;-50
2022/10/21 09:31:57;;;;;;;2.47;2.08;;;;;;;15.12;39.91;102774.91;1527064;93;21083;-52
2022/10/21 09:34:44;;;;;;;2.20;1.98;;;;;;;15.16;39.27;102776.62;1480484;96;21076;-50
2022/10/21 09:37:35;;;;;;;3.25;1.82;;;;;;;15.19;39.26;102772.64;1422645;99;21133;-49
2022/10/21 09:40:18;;;;;;;1.82;1.57;;;;;;;15.22;39.07;102773.94;1418596;100;21146;-50
2022/10/21 09:42:45;;;;;;;3.35;1.50;;;;;;;15.28;39.02;102767.32;1441935;99;21611;-51
2022/10/21 09:45:20;;;;;;;1.75;1.55;;;;;;;15.33;38.96;102766.85;1444759;99;21111;-49
2022/10/21 09:47:57;;;;;;;1.55;1.10;;;;;;;15.36;38.77;102772.05;1442989;98;21124;-50
2022/10/21 09:50:25;;;;;;;1.50;1.40;;;;;;;15.41;38.36;102769.80;1451860;99;21186;-50
2022/10/21 09:53:15;;;;;;;1.92;1.40;;;;;;;15.47;38.29;102776.80;1445848;99;21101;-49
2022/10/21 09:55:49;;;;;;;1.00;0.93;;;;;;;15.50;38.02;102782.00;1441301;99;21103;-49
2022/10/21 09:58:33;;;;;;;1.07;0.90;;;;;;;15.53;37.78;102785.92;1446408;98;21099;-50
2022/10/21 10:01:00;;;;;;;1.00;0.80;;;;;;;15.57;37.60;102777.12;1488598;95;21135;-54
2022/10/21 10:03:37;;;;;;;0.75;0.68;;;;;;;15.62;37.35;102777.09;1492694;95;21078;-51
2022/10/21 10:06:05;;;;;;;0.88;0.80;;;;;;;15.66;37.21;102770.92;1447892;98;21122;-53
2022/10/21 10:08:43;;;;;;;1.27;0.70;;;;;;;15.68;37.02;102770.02;1454008;98;21103;-52
2022/10/21 10:11:15;;;;;;;0.82;0.80;;;;;;;15.71;36.81;102762.09;1407254;101;21147;-48
2022/10/21 10:13:48;;;;;;;1.17;0.70;;;;;;;15.75;36.67;102766.42;1406784;101;21120;-54
2022/10/21 10:16:28;;;;;;;1.10;0.78;;;;;;;15.79;36.61;102762.88;1366311;104;21152;-51
2022/10/21 10:19:17;;;;;;;0.93;0.72;;;;;;;15.84;36.47;102757.58;1335426;106;21228;-51
2022/10/21 10:21:46;;;;;;;1.17;0.60;;;;;;;15.87;36.45;102761.03;1322827;108;21689;-49
2022/10/21 10:24:18;;;;;;;1.12;0.62;;;;;;;15.92;36.40;102765.80;1360454;103;21146;-50
2022/10/21 10:26:45;;;;;;;0.57;0.57;;;;;;;15.94;36.24;102765.33;1368837;104;21109;-55
2022/10/21 10:29:23;;;;;;;0.60;0.60;;;;;;;15.95;36.31;102767.05;1368694;103;21157;-50
2022/10/21 10:31:52;;;;;;;0.90;0.60;;;;;;;15.98;36.30;102767.03;1369944;104;21667;-49
2022/10/21 10:34:29;;;;;;;1.02;0.60;;;;;;;16.00;36.17;102761.31;1408222;99;21589;-50
2022/10/21 10:37:04;;;;;;;1.70;0.90;;;;;;;16.02;36.11;102752.98;1413945;99;21640;-50
2022/10/21 10:39:33;;;;;;;2.15;0.40;;;;;;;16.06;35.87;102744.17;1411409;99;21205;-52
2022/10/21 10:42:00;;;;;;;0.95;0.65;;;;;;;16.11;35.55;102737.55;1411807;99;21108;-52
2022/10/21 10:44:37;;;;;;;0.70;0.53;;;;;;;16.14;35.51;102734.42;1411306;99;21159;-49
2022/10/21 10:47:06;;;;;;;0.70;0.40;;;;;;;16.20;35.48;102734.34;1417866;99;21116;-50
2022/10/21 10:49:40;;;;;;;0.80;0.55;;;;;;;16.26;35.43;102729.00;1402211;101;21118;-49
2022/10/21 10:52:13;;;;;;;1.12;0.45;;;;;;;16.32;35.25;102737.70;1402981;101;21138;-51
2022/10/21 10:54:41;;;;;;;0.90;0.80;;;;;;;16.39;34.98;102731.45;1403155;101;21098;-49
2022/10/21 10:57:17;;;;;;;0.53;0.53;;;;;;;16.44;35.12;102725.70;1403276;101;21119;-50
2022/10/21 10:59:58;;;;;;;5.55;0.82;;;;;;;16.51;35.02;102728.67;1379819;102;21626;-50
2022/10/21 11:02:43;;;;;;;0.82;0.60;;;;;;;16.59;35.11;102731.61;1395348;100;21135;-49
2022/10/21 11:05:36;;;;;;;0.50;0.47;;;;;;;16.67;35.07;102738.09;1417026;100;21422;-54
2022/10/21 11:08:28;;;;;;;1.15;0.55;;;;;;;16.75;35.02;102736.20;1499095;92;21113;-49
2022/10/21 11:11:00;;;;;;;;;;;;;;;16.82;34.81;102727.30;1529516;92;21096;-55
2022/10/21 11:13:28;;;;;;;0.50;0.50;;;;;;;16.90;34.72;102725.41;1610603;85;20425;-50
2022/10/21 11:16:27;;;;;;;0.40;0.30;;;;;;;16.95;34.75;102731.48;1657610;85;21191;-49
2022/10/21 11:19:19;;;;;;;0.40;0.40;;;;;;;16.99;34.55;102725.27;1647238;85;21638;-53
2022/10/21 11:21:51;;;;;;;0.68;0.40;;;;;;;17.05;34.37;102730.42;1640566;85;21046;-50
2022/10/21 11:24:45;;;;;;;0.40;0.40;;;;;;;17.10;34.11;102722.86;1655318;85;21557;-52
2022/10/21 11:27:44;;;;;;;0.72;0.37;;;;;;;17.14;34.40;102716.25;1608602;88;21076;-49
2022/10/21 11:30:18;;;;;;;1.02;0.62;;;;;;;17.18;34.57;102719.25;1609804;88;21012;-56
2022/10/21 11:33:18;;;;;;;0.55;0.55;;;;;;;17.21;34.60;102715.26;1609614;88;21066;-52
2022/10/21 11:36:08;;;;;;;0.72;0.62;;;;;;;17.24;34.73;102710.80;1563127;90;21102;-51
2022/10/21 11:38:56;;;;;;;0.42;0.40;;;;;;;17.27;34.44;102713.36;1502244;94;21070;-50
2022/10/21 11:42:01;;;;;;;0.75;0.60;;;;;;;17.29;34.59;102729.98;1507657;94;21074;-53
2022/10/21 11:44:42;;;;;;;0.50;0.45;;;;;;;17.29;34.71;102719.45;1524012;92;21145;-49
2022/10/21 11:47:29;;;;;;;0.40;0.40;;;;;;;17.32;34.89;102713.28;1520471;92;21049;-50
2022/10/21 11:50:23;;;;;;;1.07;0.57;;;;;;;17.32;34.81;102720.73;1529439;92;21104;-50